createdAt,value
2023-05-21T00:01:20.126Z,31.45
2023-05-21T00:03:47.677Z,33.05
2023-05-21T00:06:15.680Z,32.05
2023-05-21T00:08:43.465Z,34.00
2023-05-21T00:11:11.181Z,33.70
2023-05-21T00:13:38.791Z,34.53
2023-05-21T00:16:06.453Z,34.80
2023-05-21T00:18:34.475Z,35.75
2023-05-21T00:21:02.341Z,35.42
2023-05-21T00:23:32.726Z,35.83
2023-05-21T00:26:00.481Z,36.53
2023-05-21T00:28:28.252Z,35.80
2023-05-21T00:30:55.811Z,38.30
2023-05-21T00:33:26.545Z,37.13
2023-05-21T00:35:54.389Z,37.88
2023-05-21T00:38:22.267Z,36.95
2023-05-21T00:40:50.044Z,38.38
2023-05-21T00:43:17.608Z,37.67
2023-05-21T00:45:46.813Z,38.53
2023-05-21T00:48:15.129Z,39.83
2023-05-21T00:50:43.370Z,39.13
2023-05-21T00:53:11.909Z,38.53
2023-05-21T00:55:39.755Z,40.80
2023-05-21T00:58:07.621Z,41.20
2023-05-21T01:00:35.995Z,44.80
2023-05-21T01:03:04.194Z,44.63
2023-05-21T01:05:32.589Z,43.78
2023-05-21T01:08:00.299Z,42.50
2023-05-21T01:10:28.265Z,42.40
2023-05-21T01:12:57.609Z,43.00
2023-05-21T01:15:25.457Z,42.17
2023-05-21T01:17:53.298Z,44.00
2023-05-21T01:20:21.277Z,44.10
2023-05-21T01:22:58.452Z,45.40
2023-05-21T01:25:26.112Z,45.00
2023-05-21T01:27:53.637Z,46.45
2023-05-21T01:30:22.323Z,46.22
2023-05-21T01:32:53.319Z,47.95
2023-05-21T01:35:27.192Z,48.28
2023-05-21T01:38:15.126Z,51.28
2023-05-21T01:40:46.654Z,49.70
2023-05-21T01:43:15.098Z,47.05
2023-05-21T01:45:43.720Z,46.05
2023-05-21T01:48:11.750Z,43.28
2023-05-21T01:50:40.214Z,42.22
2023-05-21T01:53:08.115Z,38.90
2023-05-21T01:55:36.188Z,37.83
2023-05-21T01:58:04.251Z,36.83
2023-05-21T02:00:32.766Z,36.92
2023-05-21T02:03:00.297Z,36.95
2023-05-21T02:05:27.957Z,37.60
2023-05-21T02:07:57.177Z,35.83
2023-05-21T02:10:24.767Z,35.95
2023-05-21T02:12:52.311Z,35.78
2023-05-21T02:15:20.086Z,34.58
2023-05-21T02:17:47.719Z,35.22
2023-05-21T02:20:15.711Z,34.47
2023-05-21T02:22:44.542Z,36.42
2023-05-21T02:25:12.823Z,35.83
2023-05-21T02:27:40.937Z,35.58
2023-05-21T02:30:09.189Z,36.30
2023-05-21T02:32:37.008Z,36.17
2023-05-21T02:35:05.194Z,37.38
2023-05-21T02:37:35.973Z,37.42
2023-05-21T02:40:05.943Z,37.38
2023-05-21T02:42:34.227Z,37.88
2023-05-21T02:45:01.790Z,37.40
2023-05-21T02:47:30.222Z,37.20
2023-05-21T02:49:59.463Z,37.88
2023-05-21T02:52:27.173Z,38.63
2023-05-21T02:54:54.883Z,38.28
2023-05-21T02:57:22.373Z,38.65
2023-05-21T02:59:50.040Z,38.65
2023-05-21T03:02:17.912Z,38.40
2023-05-21T03:04:49.015Z,37.85
2023-05-21T03:07:19.338Z,37.22
2023-05-21T03:09:47.302Z,37.92
2023-05-21T03:12:14.982Z,38.75
2023-05-21T03:14:44.180Z,38.70
2023-05-21T03:17:14.145Z,37.25
2023-05-21T03:19:42.547Z,37.22
2023-05-21T03:22:11.421Z,37.72
2023-05-21T03:24:39.554Z,36.17
2023-05-21T03:27:07.553Z,37.10
2023-05-21T03:29:36.223Z,36.33
2023-05-21T03:32:04.646Z,36.90
2023-05-21T03:34:34.660Z,36.58
2023-05-21T03:37:03.629Z,34.67
2023-05-21T03:39:32.470Z,35.60
2023-05-21T03:42:00.647Z,34.55
2023-05-21T03:44:41.002Z,35.15
2023-05-21T03:47:41.936Z,32.72
2023-05-21T03:50:11.173Z,32.90
2023-05-21T03:52:39.381Z,31.98
2023-05-21T03:55:07.070Z,32.72
2023-05-21T03:57:34.758Z,31.23
2023-05-21T04:00:02.768Z,32.20
2023-05-21T04:02:32.973Z,30.52
2023-05-21T04:05:00.525Z,30.17
2023-05-21T04:07:30.228Z,30.55
2023-05-21T04:09:57.829Z,28.48
2023-05-21T04:12:25.377Z,28.83
2023-05-21T04:14:52.942Z,27.77
2023-05-21T04:17:21.223Z,28.55
2023-05-21T04:19:48.886Z,27.02
2023-05-21T04:22:16.636Z,25.13
2023-05-21T04:24:46.661Z,24.38
2023-05-21T04:27:18.217Z,22.27
2023-05-21T04:29:46.190Z,21.10
2023-05-21T04:32:15.333Z,20.08
2023-05-21T04:34:45.485Z,19.00
2023-05-21T04:37:13.038Z,20.00
2023-05-21T04:39:41.284Z,19.35
2023-05-21T04:42:11.294Z,19.33
2023-05-21T04:44:40.492Z,18.10
2023-05-21T04:47:08.364Z,18.05
2023-05-21T04:49:37.223Z,16.92
2023-05-21T04:52:04.729Z,16.92
2023-05-21T04:54:32.423Z,16.45
2023-05-21T04:57:00.195Z,15.93
2023-05-21T04:59:27.662Z,15.90
2023-05-21T05:01:55.591Z,15.35
2023-05-21T05:04:24.011Z,15.30
2023-05-21T05:06:52.425Z,14.43
2023-05-21T05:09:21.765Z,16.45
2023-05-21T05:11:49.224Z,14.25
2023-05-21T05:14:16.670Z,13.35
2023-05-21T05:16:48.254Z,13.60
2023-05-21T05:19:16.884Z,13.73
2023-05-21T05:21:45.061Z,14.85
2023-05-21T05:24:12.843Z,13.10
2023-05-21T05:26:40.411Z,13.65
2023-05-21T05:29:07.916Z,12.75
2023-05-21T05:31:35.508Z,13.05
2023-05-21T05:34:03.127Z,12.57
2023-05-21T05:36:31.611Z,13.63
2023-05-21T05:38:59.222Z,12.57
2023-05-21T05:41:27.297Z,12.40
2023-05-21T05:43:56.487Z,12.10
2023-05-21T05:46:27.119Z,11.60
2023-05-21T05:48:54.686Z,11.60
2023-05-21T05:51:22.384Z,11.52
2023-05-21T05:53:49.855Z,11.23
2023-05-21T05:56:17.407Z,11.70
2023-05-21T05:58:45.667Z,11.60
2023-05-21T06:01:15.232Z,10.95
2023-05-21T06:03:43.262Z,11.50
2023-05-21T06:06:14.887Z,11.23
2023-05-21T06:08:42.781Z,11.55
2023-05-21T06:11:11.114Z,11.50
2023-05-21T06:13:38.618Z,11.38
2023-05-21T06:16:07.784Z,10.95
2023-05-21T06:18:35.380Z,11.35
2023-05-21T06:21:02.967Z,10.88
2023-05-21T06:23:32.747Z,10.90
2023-05-21T06:26:00.853Z,10.85
2023-05-21T06:28:28.598Z,10.32
2023-05-21T06:30:56.558Z,10.90
2023-05-21T06:33:25.212Z,10.68
2023-05-21T06:35:53.279Z,10.52
2023-05-21T06:38:20.862Z,10.82
2023-05-21T06:40:48.364Z,10.30
2023-05-21T06:43:26.389Z,10.57
2023-05-21T06:46:14.201Z,10.13
2023-05-21T06:48:41.885Z,10.48
2023-05-21T06:51:09.519Z,10.15
2023-05-21T06:53:37.151Z,10.23
2023-05-21T06:56:05.078Z,9.95
2023-05-21T06:58:37.593Z,10.23
2023-05-21T07:01:06.047Z,10.52
2023-05-21T07:03:33.722Z,9.98
2023-05-21T07:06:01.229Z,9.70
2023-05-21T07:08:29.341Z,10.20
2023-05-21T07:10:57.477Z,10.68
2023-05-21T07:13:25.799Z,11.05
2023-05-21T07:15:54.009Z,10.63
2023-05-21T07:18:21.751Z,10.50
2023-05-21T07:20:49.201Z,10.95
2023-05-21T07:23:17.076Z,10.93
2023-05-21T07:25:46.577Z,10.27
2023-05-21T07:28:14.988Z,10.68
2023-05-21T07:30:42.695Z,10.73
2023-05-21T07:33:14.838Z,11.15
2023-05-21T07:35:42.801Z,10.85
2023-05-21T07:38:10.422Z,10.45
2023-05-21T07:40:38.154Z,9.93
2023-05-21T07:43:05.773Z,9.98
2023-05-21T07:45:35.005Z,10.23
2023-05-21T07:48:03.247Z,9.68
2023-05-21T07:50:33.144Z,9.70
2023-05-21T07:53:00.828Z,8.77
2023-05-21T07:55:28.474Z,9.25
2023-05-21T07:57:56.425Z,9.85
2023-05-21T08:00:28.763Z,9.65
2023-05-21T08:02:58.264Z,9.60
2023-05-21T08:05:26.797Z,9.85
2023-05-21T08:07:54.228Z,9.45
2023-05-21T08:10:22.658Z,9.93
2023-05-21T08:12:52.348Z,9.30
2023-05-21T08:15:21.260Z,9.68
2023-05-21T08:17:48.933Z,9.30
2023-05-21T08:20:16.633Z,9.20
2023-05-21T08:22:46.145Z,9.02
2023-05-21T08:25:13.847Z,8.45
2023-05-21T08:27:42.839Z,9.10
2023-05-21T08:30:13.630Z,8.73
2023-05-21T08:32:41.702Z,8.98
2023-05-21T08:35:09.469Z,8.95
2023-05-21T08:37:54.722Z,8.95
2023-05-21T08:40:42.427Z,8.95
2023-05-21T08:43:13.959Z,8.40
2023-05-21T08:45:46.312Z,8.30
2023-05-21T08:48:17.114Z,7.88
2023-05-21T08:50:46.259Z,8.30
2023-05-21T08:53:28.649Z,7.95
2023-05-21T08:55:57.756Z,8.32
2023-05-21T08:58:36.158Z,8.02
2023-05-21T09:01:05.677Z,8.10
2023-05-21T09:03:34.864Z,8.30
2023-05-21T09:06:03.100Z,7.03
2023-05-21T09:08:32.947Z,7.40
2023-05-21T09:11:25.480Z,7.38
2023-05-21T09:13:57.220Z,7.38
2023-05-21T09:16:31.870Z,7.38
2023-05-21T09:19:01.077Z,7.15
2023-05-21T09:21:33.929Z,7.30
2023-05-21T09:24:07.426Z,6.82
2023-05-21T09:26:34.931Z,7.13
2023-05-21T09:29:06.029Z,6.88
2023-05-21T09:31:33.590Z,7.38
2023-05-21T09:34:01.903Z,6.60
2023-05-21T09:36:32.339Z,7.07
2023-05-21T09:39:00.656Z,6.82
2023-05-21T09:41:38.394Z,7.10
2023-05-21T09:44:07.112Z,7.15
2023-05-21T09:46:41.227Z,6.45
2023-05-21T09:49:30.700Z,7.10
2023-05-21T09:52:02.242Z,6.57
2023-05-21T09:54:33.995Z,6.57
2023-05-21T09:57:05.149Z,6.35
2023-05-21T09:59:41.835Z,6.78
2023-05-21T10:02:22.298Z,6.57
2023-05-21T10:04:51.876Z,6.55
2023-05-21T10:07:27.403Z,6.93
2023-05-21T10:09:58.741Z,6.40
2023-05-21T10:12:26.612Z,6.45
2023-05-21T10:15:08.990Z,6.68
2023-05-21T10:17:37.104Z,6.78
2023-05-21T10:20:06.606Z,7.05
2023-05-21T10:22:35.054Z,7.07
2023-05-21T10:25:04.038Z,7.10
2023-05-21T10:27:32.640Z,7.25
2023-05-21T10:30:01.108Z,7.03
2023-05-21T10:32:29.150Z,6.72
2023-05-21T10:34:59.383Z,7.00
2023-05-21T10:37:29.882Z,6.53
2023-05-21T10:39:58.571Z,6.30
2023-05-21T10:42:35.634Z,6.15
2023-05-21T10:45:23.665Z,6.57
2023-05-21T10:48:09.938Z,6.65
2023-05-21T10:50:41.891Z,6.50
2023-05-21T10:53:29.697Z,6.70
2023-05-21T10:56:07.049Z,6.65
2023-05-21T10:58:53.037Z,6.68
2023-05-21T11:01:21.374Z,6.68
2023-05-21T11:03:49.254Z,6.05
2023-05-21T11:06:27.281Z,6.78
2023-05-21T11:08:55.748Z,7.25
2023-05-21T11:11:46.236Z,6.78
2023-05-21T11:14:35.278Z,6.28
2023-05-21T11:17:04.748Z,6.32
2023-05-21T11:19:42.752Z,6.60
2023-05-21T11:22:22.132Z,6.50
2023-05-21T11:24:51.337Z,6.43
2023-05-21T11:27:39.457Z,6.50
2023-05-21T11:30:11.261Z,6.53
2023-05-21T11:32:46.278Z,6.28
2023-05-21T11:35:15.262Z,6.00
2023-05-21T11:37:46.194Z,6.00
2023-05-21T11:40:21.632Z,5.55
2023-05-21T11:42:53.777Z,5.85
2023-05-21T11:45:24.580Z,6.57
2023-05-21T11:47:53.973Z,6.28
2023-05-21T11:50:22.028Z,5.60
2023-05-21T11:52:50.129Z,5.10
2023-05-21T11:55:24.744Z,5.10
2023-05-21T11:57:53.992Z,5.65
2023-05-21T12:00:21.839Z,5.40
2023-05-21T12:02:51.981Z,4.65
2023-05-21T12:05:19.811Z,4.97
2023-05-21T12:07:51.451Z,4.85
2023-05-21T12:10:23.107Z,5.35
2023-05-21T12:12:56.397Z,5.40
2023-05-21T12:15:25.583Z,5.07
2023-05-21T12:17:53.351Z,5.40
2023-05-21T12:20:21.292Z,5.25
2023-05-21T12:22:52.232Z,4.97
2023-05-21T12:25:20.708Z,5.20
2023-05-21T12:27:52.677Z,4.82
2023-05-21T12:30:21.527Z,5.00
2023-05-21T12:32:49.922Z,5.03
2023-05-21T12:35:24.630Z,4.97
2023-05-21T12:37:54.829Z,5.18
2023-05-21T12:40:22.714Z,5.03
2023-05-21T12:42:52.050Z,5.80
2023-05-21T12:45:21.228Z,5.13
2023-05-21T12:47:50.825Z,4.60
2023-05-21T12:50:24.689Z,5.20
2023-05-21T12:52:55.030Z,5.15
2023-05-21T12:55:26.461Z,5.13
2023-05-21T12:58:09.168Z,5.28
2023-05-21T13:00:37.785Z,4.68
2023-05-21T13:03:06.748Z,5.25
2023-05-21T13:05:34.991Z,5.13
2023-05-21T13:08:05.494Z,4.97
2023-05-21T13:10:35.369Z,4.70
2023-05-21T13:13:03.011Z,4.80
2023-05-21T13:15:30.703Z,4.60
2023-05-21T13:17:58.917Z,5.00
2023-05-21T13:20:27.856Z,4.57
2023-05-21T13:22:55.505Z,4.97
2023-05-21T13:25:29.123Z,4.43
2023-05-21T13:27:58.347Z,4.57
2023-05-21T13:30:26.041Z,4.80
2023-05-21T13:32:54.175Z,4.57
2023-05-21T13:35:21.822Z,4.30
2023-05-21T13:37:50.210Z,4.50
2023-05-21T13:40:17.747Z,4.40
2023-05-21T13:42:46.319Z,4.53
2023-05-21T13:45:14.947Z,4.75
2023-05-21T13:47:43.251Z,4.63
2023-05-21T13:50:11.184Z,4.55
2023-05-21T13:52:39.421Z,4.30
2023-05-21T13:55:07.237Z,3.97
2023-05-21T13:57:34.780Z,4.38
2023-05-21T14:00:02.572Z,4.15
2023-05-21T14:02:35.471Z,3.95
2023-05-21T14:05:03.172Z,3.90
2023-05-21T14:07:31.037Z,4.03
2023-05-21T14:09:58.536Z,3.83
2023-05-21T14:12:26.979Z,4.30
2023-05-21T14:14:54.522Z,4.13
2023-05-21T14:17:22.072Z,4.13
2023-05-21T14:19:49.863Z,4.00
2023-05-21T14:22:17.302Z,4.45
2023-05-21T14:24:44.803Z,4.47
2023-05-21T14:27:14.550Z,4.05
2023-05-21T14:29:42.980Z,4.28
2023-05-21T14:32:10.795Z,4.45
2023-05-21T14:34:39.304Z,4.15
2023-05-21T14:37:07.189Z,4.07
2023-05-21T14:39:34.699Z,4.28
2023-05-21T14:42:04.897Z,4.20
2023-05-21T14:44:32.747Z,3.67
2023-05-21T14:47:00.486Z,4.55
2023-05-21T14:49:28.293Z,4.03
2023-05-21T14:51:56.004Z,4.35
2023-05-21T14:54:24.542Z,4.00
2023-05-21T14:56:52.903Z,3.90
2023-05-21T14:59:20.669Z,4.28
2023-05-21T15:01:48.510Z,3.90
2023-05-21T15:04:16.448Z,4.30
2023-05-21T15:06:44.171Z,3.80
2023-05-21T15:09:11.883Z,4.15
2023-05-21T15:11:40.258Z,3.63
2023-05-21T15:14:07.788Z,4.07
2023-05-21T15:16:35.765Z,4.07
2023-05-21T15:19:04.294Z,4.43
2023-05-21T15:21:32.211Z,4.57
2023-05-21T15:23:59.926Z,4.10
2023-05-21T15:26:27.709Z,4.07
2023-05-21T15:28:55.379Z,3.78
2023-05-21T15:31:23.007Z,3.65
2023-05-21T15:33:50.527Z,4.10
2023-05-21T15:36:18.170Z,4.25
2023-05-21T15:38:45.688Z,3.95
2023-05-21T15:41:15.309Z,4.00
2023-05-21T15:43:42.985Z,4.25
2023-05-21T15:46:13.518Z,4.05
2023-05-21T15:48:41.283Z,4.20
2023-05-21T15:51:08.894Z,4.40
2023-05-21T15:53:36.340Z,4.15
2023-05-21T15:56:04.541Z,4.47
2023-05-21T15:58:32.209Z,4.00
2023-05-21T16:00:59.783Z,4.00
2023-05-21T16:03:27.541Z,4.45
2023-05-21T16:05:58.377Z,4.47
2023-05-21T16:08:25.935Z,3.88
2023-05-21T16:10:53.492Z,3.90
2023-05-21T16:13:21.339Z,4.28
2023-05-21T16:15:49.027Z,4.20
2023-05-21T16:18:16.751Z,4.43
2023-05-21T16:20:44.331Z,4.55
2023-05-21T16:23:12.896Z,4.35
2023-05-21T16:25:40.523Z,4.82
2023-05-21T16:28:08.017Z,4.28
2023-05-21T16:30:35.528Z,4.35
2023-05-21T16:33:03.231Z,4.65
2023-05-21T16:35:33.647Z,4.38
2023-05-21T16:38:01.311Z,4.53
2023-05-21T16:40:29.121Z,4.50
2023-05-21T16:42:56.839Z,4.47
2023-05-21T16:45:24.904Z,4.47
2023-05-21T16:47:52.829Z,4.72
2023-05-21T16:50:21.029Z,4.60
2023-05-21T16:52:48.981Z,4.97
2023-05-21T16:55:16.576Z,4.78
2023-05-21T16:57:44.104Z,4.25
2023-05-21T17:00:13.127Z,4.53
2023-05-21T17:02:40.820Z,4.40
2023-05-21T17:05:08.552Z,4.45
2023-05-21T17:07:36.012Z,4.50
2023-05-21T17:10:04.029Z,3.67
2023-05-21T17:12:31.593Z,3.67
2023-05-21T17:14:59.225Z,4.05
2023-05-21T17:17:27.048Z,3.75
2023-05-21T17:19:58.714Z,4.13
2023-05-21T17:22:26.384Z,4.00
2023-05-21T17:24:54.173Z,3.60
2023-05-21T17:27:21.807Z,3.70
2023-05-21T17:29:49.314Z,4.03
2023-05-21T17:32:17.169Z,3.90
2023-05-21T17:34:44.790Z,3.25
2023-05-21T17:37:12.352Z,3.50
2023-05-21T17:39:40.019Z,3.30
2023-05-21T17:42:07.578Z,3.58
2023-05-21T17:44:35.087Z,3.70
2023-05-21T17:47:02.762Z,3.33
2023-05-21T17:49:30.681Z,3.60
2023-05-21T17:51:59.613Z,3.65
2023-05-21T17:54:27.173Z,3.90
2023-05-21T17:56:54.618Z,3.70
2023-05-21T17:59:22.243Z,3.60
2023-05-21T18:01:49.836Z,3.80
2023-05-21T18:04:17.661Z,3.70
2023-05-21T18:06:45.435Z,3.35
2023-05-21T18:09:15.626Z,3.78
2023-05-21T18:11:44.682Z,3.55
2023-05-21T18:14:12.314Z,3.58
2023-05-21T18:16:41.082Z,3.65
2023-05-21T18:19:08.693Z,3.40
2023-05-21T18:21:36.376Z,3.95
2023-05-21T18:24:04.206Z,3.83
2023-05-21T18:26:31.947Z,3.40
2023-05-21T18:28:59.678Z,3.42
2023-05-21T18:31:27.543Z,3.53
2023-05-21T18:33:55.141Z,3.83
2023-05-21T18:36:22.752Z,3.85
2023-05-21T18:38:50.228Z,4.18
2023-05-21T18:41:18.272Z,4.65
2023-05-21T18:43:46.166Z,4.60
2023-05-21T18:46:13.784Z,5.00
2023-05-21T18:48:41.754Z,4.32
2023-05-21T18:51:09.999Z,4.20
2023-05-21T18:53:38.707Z,4.57
2023-05-21T18:56:07.690Z,4.45
2023-05-21T18:58:36.027Z,3.70
2023-05-21T19:01:03.618Z,4.40
2023-05-21T19:03:32.281Z,4.28
2023-05-21T19:06:00.203Z,4.05
2023-05-21T19:08:27.742Z,3.65
2023-05-21T19:10:55.562Z,3.67
2023-05-21T19:13:23.849Z,3.83
2023-05-21T19:15:51.413Z,4.07
2023-05-21T19:18:19.208Z,3.92
2023-05-21T19:20:46.932Z,3.67
2023-05-21T19:23:14.571Z,4.00
2023-05-21T19:25:42.228Z,4.00
2023-05-21T19:28:09.912Z,4.38
2023-05-21T19:30:37.655Z,4.25
2023-05-21T19:33:06.473Z,4.55
2023-05-21T19:35:35.078Z,4.15
2023-05-21T19:38:05.058Z,4.53
2023-05-21T19:40:33.067Z,4.13
2023-05-21T19:43:00.603Z,4.40
2023-05-21T19:45:28.113Z,4.70
2023-05-21T19:48:00.018Z,4.18
2023-05-21T19:50:28.938Z,4.40
2023-05-21T19:52:57.428Z,4.50
2023-05-21T19:55:25.159Z,4.18
2023-05-21T19:57:52.827Z,4.43
2023-05-21T20:00:20.626Z,4.00
2023-05-21T20:02:48.284Z,4.15
2023-05-21T20:05:16.342Z,4.03
2023-05-21T20:07:44.994Z,4.22
2023-05-21T20:10:12.507Z,4.07
2023-05-21T20:12:40.106Z,4.43
2023-05-21T20:15:08.292Z,4.18
2023-05-21T20:17:36.205Z,4.65
2023-05-21T20:20:07.706Z,4.32
2023-05-21T20:22:35.173Z,4.40
2023-05-21T20:25:04.200Z,4.60
2023-05-21T20:27:32.133Z,4.25
2023-05-21T20:29:59.842Z,4.72
2023-05-21T20:32:27.429Z,4.78
2023-05-21T20:35:02.862Z,4.90
2023-05-21T20:37:34.716Z,4.47
2023-05-21T20:40:02.372Z,4.55
2023-05-21T20:42:34.799Z,4.45
2023-05-21T20:45:03.310Z,4.43
2023-05-21T20:47:31.021Z,4.72
2023-05-21T20:50:00.197Z,4.80
2023-05-21T20:52:28.689Z,4.32
2023-05-21T20:54:59.577Z,4.75
2023-05-21T20:57:28.545Z,4.68
2023-05-21T20:59:56.292Z,4.90
2023-05-21T21:02:24.164Z,4.70
2023-05-21T21:04:51.799Z,4.93
2023-05-21T21:07:19.839Z,4.78
2023-05-21T21:09:47.842Z,4.88
2023-05-21T21:12:26.146Z,4.95
2023-05-21T21:14:54.668Z,4.60
2023-05-21T21:17:22.277Z,4.63
2023-05-21T21:19:50.045Z,4.97
2023-05-21T21:22:18.477Z,4.80
2023-05-21T21:24:47.368Z,4.72
2023-05-21T21:27:14.866Z,4.60
2023-05-21T21:29:42.460Z,4.78
2023-05-21T21:32:10.225Z,4.85
2023-05-21T21:34:37.730Z,4.88
2023-05-21T21:37:05.419Z,4.18
2023-05-21T21:39:33.252Z,4.55
2023-05-21T21:42:00.978Z,5.53
2023-05-21T21:44:28.694Z,5.07
2023-05-21T21:46:56.386Z,5.13
2023-05-21T21:49:24.066Z,4.85
2023-05-21T21:51:51.779Z,5.03
2023-05-21T21:54:19.548Z,4.70
2023-05-21T21:56:47.266Z,4.32
2023-05-21T21:59:15.148Z,4.63
2023-05-21T22:01:43.394Z,4.50
2023-05-21T22:04:11.499Z,4.63
2023-05-21T22:06:41.955Z,5.18
2023-05-21T22:09:09.702Z,4.75
2023-05-21T22:11:37.342Z,4.80
2023-05-21T22:14:06.067Z,4.70
2023-05-21T22:16:34.292Z,4.40
2023-05-21T22:19:02.483Z,4.72
2023-05-21T22:21:33.106Z,5.15
2023-05-21T22:24:00.807Z,5.15
2023-05-21T22:26:30.382Z,4.60
2023-05-21T22:28:59.422Z,4.70
2023-05-21T22:31:27.283Z,4.80
2023-05-21T22:33:54.823Z,4.85
2023-05-21T22:36:22.696Z,5.28
2023-05-21T22:38:50.258Z,5.57
2023-05-21T22:41:18.140Z,4.90
2023-05-21T22:43:46.241Z,5.28
2023-05-21T22:46:13.838Z,4.93
2023-05-21T22:48:41.986Z,5.03
2023-05-21T22:51:11.687Z,5.18
2023-05-21T22:53:39.247Z,5.10
2023-05-21T22:56:07.110Z,4.90
2023-05-21T22:58:34.751Z,5.25
2023-05-21T23:01:02.171Z,5.30
2023-05-21T23:03:29.872Z,5.50
2023-05-21T23:05:57.337Z,4.88
2023-05-21T23:08:24.892Z,4.65
2023-05-21T23:10:52.512Z,5.28
2023-05-21T23:13:20.056Z,5.18
2023-05-21T23:15:48.640Z,4.82
2023-05-21T23:18:16.834Z,5.40
2023-05-21T23:20:44.576Z,5.35
2023-05-21T23:23:12.297Z,5.28
2023-05-21T23:25:40.228Z,4.80
2023-05-21T23:28:07.738Z,5.20
2023-05-21T23:30:35.655Z,4.82
2023-05-21T23:33:03.565Z,5.10
2023-05-21T23:35:31.229Z,5.13
2023-05-21T23:37:58.789Z,4.97
2023-05-21T23:40:26.827Z,5.03
2023-05-21T23:42:54.440Z,5.20
2023-05-21T23:45:22.269Z,5.13
2023-05-21T23:47:50.169Z,5.32
2023-05-21T23:50:17.977Z,5.38
2023-05-21T23:52:48.866Z,5.20
2023-05-21T23:55:16.894Z,5.50
2023-05-21T23:57:44.709Z,5.35
